createdAt,value
2019-01-24T00:00:49.651Z,1.22
2019-01-24T00:03:20.858Z,1.32
2019-01-24T00:05:51.835Z,1.35
2019-01-24T00:08:22.908Z,1.45
2019-01-24T00:10:54.252Z,1.53
2019-01-24T00:13:25.229Z,1.45
2019-01-24T00:15:56.267Z,1.46
2019-01-24T00:18:27.309Z,1.55
2019-01-24T00:20:58.374Z,1.42
2019-01-24T00:23:30.325Z,1.45
2019-01-24T00:26:01.630Z,1.56
2019-01-24T00:28:33.209Z,1.52
2019-01-24T00:31:04.331Z,1.39
2019-01-24T00:33:35.306Z,1.33
2019-01-24T00:36:06.593Z,1.26
2019-01-24T00:38:37.891Z,1.08
2019-01-24T00:41:08.926Z,0.97
2019-01-24T00:43:40.350Z,1.05
2019-01-24T00:46:11.343Z,1.07
2019-01-24T00:48:43.346Z,1.04
2019-01-24T00:51:14.622Z,1.00
2019-01-24T00:53:45.599Z,0.98
2019-01-24T00:56:16.706Z,1.08
2019-01-24T00:58:47.747Z,1.23
2019-01-24T01:01:18.862Z,1.07
2019-01-24T01:03:50.110Z,1.11
2019-01-24T01:06:21.438Z,1.21
2019-01-24T01:08:52.416Z,1.32
2019-01-24T01:11:23.795Z,1.24
2019-01-24T01:13:55.093Z,1.21
2019-01-24T01:16:26.063Z,1.19
2019-01-24T01:18:57.043Z,1.28
2019-01-24T01:21:28.155Z,1.31
2019-01-24T01:23:59.458Z,1.29
2019-01-24T01:26:30.765Z,1.34
2019-01-24T01:29:01.743Z,1.35
2019-01-24T01:31:32.853Z,1.31
2019-01-24T01:34:04.148Z,1.38
2019-01-24T01:36:36.418Z,1.52
2019-01-24T01:39:09.938Z,1.49
2019-01-24T01:41:41.432Z,1.58
2019-01-24T01:44:12.656Z,1.52
2019-01-24T01:46:43.627Z,1.55
2019-01-24T01:49:14.860Z,1.55
2019-01-24T01:51:45.827Z,1.41
2019-01-24T01:54:16.792Z,1.46
2019-01-24T01:56:47.747Z,1.64
2019-01-24T01:59:18.781Z,1.61
2019-01-24T02:01:51.537Z,1.34
2019-01-24T02:04:22.842Z,1.23
2019-01-24T02:06:53.851Z,1.39
2019-01-24T02:09:25.097Z,1.55
2019-01-24T02:11:56.456Z,1.42
2019-01-24T02:14:28.181Z,1.41
2019-01-24T02:16:59.218Z,1.48
2019-01-24T02:19:31.077Z,1.46
2019-01-24T02:22:02.282Z,1.41
2019-01-24T02:24:33.572Z,1.53
2019-01-24T02:27:05.020Z,1.59
2019-01-24T02:29:36.092Z,1.61
2019-01-24T02:32:07.413Z,1.60
2019-01-24T02:34:38.651Z,1.63
2019-01-24T02:37:09.901Z,1.50
2019-01-24T02:39:41.899Z,1.30
2019-01-24T02:42:12.943Z,1.07
2019-01-24T02:44:43.985Z,1.02
2019-01-24T02:47:16.233Z,1.25
2019-01-24T02:49:47.463Z,1.22
2019-01-24T02:52:18.768Z,1.30
2019-01-24T02:54:49.742Z,1.32
2019-01-24T02:57:20.773Z,1.39
2019-01-24T02:59:52.590Z,1.24
2019-01-24T03:02:23.698Z,1.31
2019-01-24T03:04:57.029Z,1.43
2019-01-24T03:07:27.595Z,1.60
2019-01-24T03:09:58.561Z,1.63
2019-01-24T03:12:29.602Z,1.67
2019-01-24T03:15:00.682Z,1.55
2019-01-24T03:17:32.621Z,1.42
2019-01-24T03:20:04.009Z,1.48
2019-01-24T03:22:34.976Z,1.51
2019-01-24T03:25:07.446Z,1.57
2019-01-24T03:27:38.464Z,1.27
2019-01-24T03:30:19.220Z,1.13
2019-01-24T03:32:51.455Z,1.31
2019-01-24T03:35:25.825Z,1.29
2019-01-24T03:37:56.863Z,1.42
2019-01-24T03:40:27.990Z,1.12
2019-01-24T03:42:58.954Z,1.15
2019-01-24T03:45:29.969Z,1.23
2019-01-24T03:48:00.922Z,1.32
2019-01-24T03:50:32.438Z,1.28
2019-01-24T03:53:03.423Z,1.44
2019-01-24T03:55:34.511Z,1.59
2019-01-24T03:58:06.248Z,1.65
2019-01-24T04:00:37.472Z,1.58
2019-01-24T04:03:08.457Z,1.57
2019-01-24T04:05:39.791Z,1.55
2019-01-24T04:08:11.138Z,1.57
2019-01-24T04:10:42.946Z,1.55
2019-01-24T04:13:13.917Z,1.65
2019-01-24T04:15:44.990Z,1.71
2019-01-24T04:18:16.150Z,1.75
2019-01-24T04:20:47.198Z,1.78
2019-01-24T04:23:18.174Z,1.77
2019-01-24T04:25:49.257Z,1.78
2019-01-24T04:28:20.755Z,1.80
2019-01-24T04:30:52.332Z,1.67
2019-01-24T04:33:23.285Z,1.66
2019-01-24T04:35:54.652Z,1.71
2019-01-24T04:38:25.621Z,1.58
2019-01-24T04:40:57.321Z,1.68
2019-01-24T04:43:28.410Z,1.68
2019-01-24T04:45:59.382Z,1.78
2019-01-24T04:48:30.342Z,1.84
2019-01-24T04:51:01.432Z,1.80
2019-01-24T04:53:32.427Z,1.67
2019-01-24T04:56:03.562Z,1.59
2019-01-24T04:58:34.861Z,1.62
2019-01-24T05:01:06.850Z,1.61
2019-01-24T05:03:37.827Z,1.67
2019-01-24T05:06:09.303Z,1.76
2019-01-24T05:08:40.257Z,1.77
2019-01-24T05:11:11.240Z,1.78
2019-01-24T05:13:43.539Z,1.83
2019-01-24T05:16:14.523Z,1.88
2019-01-24T05:18:45.484Z,1.76
2019-01-24T05:21:16.538Z,1.67
2019-01-24T05:23:47.789Z,1.71
2019-01-24T05:26:19.333Z,1.69
2019-01-24T05:28:50.331Z,1.57
2019-01-24T05:31:22.089Z,1.45
2019-01-24T05:33:53.309Z,1.54
2019-01-24T05:36:24.534Z,1.46
2019-01-24T05:38:55.752Z,1.54
2019-01-24T05:41:27.492Z,1.62
2019-01-24T05:43:58.827Z,1.58
2019-01-24T05:46:29.939Z,1.64
2019-01-24T05:49:00.888Z,1.76
2019-01-24T05:51:32.447Z,1.62
2019-01-24T05:54:03.692Z,1.65
2019-01-24T05:56:34.921Z,1.60
2019-01-24T05:59:06.049Z,2.08
2019-01-24T06:01:38.157Z,1.89
2019-01-24T06:04:09.404Z,1.78
2019-01-24T06:06:43.415Z,1.74
2019-01-24T06:09:14.378Z,1.58
2019-01-24T06:11:45.418Z,1.53
2019-01-24T06:14:16.390Z,1.58
2019-01-24T06:16:47.376Z,1.57
2019-01-24T06:19:18.902Z,1.60
2019-01-24T06:21:50.162Z,1.61
2019-01-24T06:24:21.132Z,1.75
2019-01-24T06:26:52.115Z,1.71
2019-01-24T06:29:23.178Z,1.61
2019-01-24T06:31:54.703Z,1.61
2019-01-24T06:34:26.152Z,1.66
2019-01-24T06:36:57.818Z,1.63
2019-01-24T06:39:29.093Z,1.73
2019-01-24T06:42:00.740Z,1.63
2019-01-24T06:44:32.189Z,1.54
2019-01-24T06:47:03.176Z,1.70
2019-01-24T06:49:34.483Z,1.67
2019-01-24T06:52:05.842Z,1.72
2019-01-24T06:54:36.958Z,1.72
2019-01-24T06:57:07.944Z,1.70
2019-01-24T06:59:38.979Z,1.67
2019-01-24T07:02:10.019Z,1.66
2019-01-24T07:04:41.237Z,1.59
2019-01-24T07:07:13.009Z,1.55
2019-01-24T07:09:44.567Z,1.55
2019-01-24T07:12:15.634Z,1.60
2019-01-24T07:14:47.160Z,1.58
2019-01-24T07:17:18.214Z,1.72
2019-01-24T07:19:49.278Z,1.79
2019-01-24T07:22:20.288Z,1.76
2019-01-24T07:24:51.247Z,1.64
2019-01-24T07:27:22.466Z,1.75
2019-01-24T07:29:53.626Z,1.66
2019-01-24T07:32:24.834Z,1.64
2019-01-24T07:34:56.303Z,1.67
2019-01-24T07:37:27.930Z,1.70
2019-01-24T07:39:59.584Z,1.75
2019-01-24T07:42:32.121Z,1.66
2019-01-24T07:45:03.294Z,1.80
2019-01-24T07:47:34.353Z,1.74
2019-01-24T07:50:06.826Z,1.76
2019-01-24T07:52:37.846Z,1.71
2019-01-24T07:55:10.847Z,1.81
2019-01-24T07:57:42.122Z,1.80
2019-01-24T08:00:20.496Z,1.83
2019-01-24T08:02:51.535Z,1.82
2019-01-24T08:05:23.233Z,1.71
2019-01-24T08:07:54.278Z,1.64
2019-01-24T08:10:26.556Z,1.55
2019-01-24T08:12:57.956Z,1.68
2019-01-24T08:15:29.380Z,1.54
2019-01-24T08:18:00.603Z,1.56
2019-01-24T08:20:31.724Z,1.48
2019-01-24T08:23:02.702Z,1.52
2019-01-24T08:25:33.781Z,1.61
2019-01-24T08:28:06.287Z,1.71
2019-01-24T08:30:37.327Z,1.66
2019-01-24T08:33:08.378Z,1.75
2019-01-24T08:35:39.481Z,1.82
2019-01-24T08:38:10.812Z,1.84
2019-01-24T08:40:41.774Z,1.83
2019-01-24T08:43:12.752Z,1.84
2019-01-24T08:45:43.967Z,1.74
2019-01-24T08:48:14.949Z,1.70
2019-01-24T08:50:45.919Z,1.70
2019-01-24T08:53:17.855Z,1.64
2019-01-24T08:55:48.862Z,1.78
2019-01-24T08:58:20.076Z,1.90
2019-01-24T09:00:51.468Z,1.73
2019-01-24T09:03:22.510Z,1.80
2019-01-24T09:05:53.965Z,1.69
2019-01-24T09:08:25.012Z,1.66
2019-01-24T09:10:56.549Z,1.82
2019-01-24T09:13:28.310Z,1.87
2019-01-24T09:15:59.467Z,1.89
2019-01-24T09:18:30.522Z,1.78
2019-01-24T09:21:01.573Z,1.82
2019-01-24T09:23:32.622Z,1.80
2019-01-24T09:26:03.738Z,1.79
2019-01-24T09:28:35.068Z,1.93
2019-01-24T09:31:06.027Z,1.87
2019-01-24T09:33:37.080Z,1.79
2019-01-24T09:36:08.129Z,1.87
2019-01-24T09:38:39.085Z,1.97
2019-01-24T09:41:10.133Z,2.03
2019-01-24T09:43:41.255Z,2.08
2019-01-24T09:46:12.242Z,1.99
2019-01-24T09:48:43.387Z,2.10
2019-01-24T09:51:14.342Z,2.10
2019-01-24T09:53:46.216Z,2.18
2019-01-24T09:56:17.172Z,2.22
2019-01-24T09:58:48.331Z,2.12
2019-01-24T10:01:20.001Z,2.06
2019-01-24T10:03:51.219Z,2.19
2019-01-24T10:06:22.434Z,2.22
2019-01-24T10:08:53.486Z,2.18
2019-01-24T10:11:24.526Z,2.31
2019-01-24T10:13:55.654Z,2.45
2019-01-24T10:16:26.749Z,2.42
2019-01-24T10:18:58.975Z,2.54
2019-01-24T10:21:30.311Z,2.48
2019-01-24T10:24:01.363Z,2.47
2019-01-24T10:26:32.571Z,2.44
2019-01-24T10:29:03.949Z,2.51
2019-01-24T10:31:34.991Z,2.49
2019-01-24T10:34:06.505Z,2.54
2019-01-24T10:36:42.934Z,2.48
2019-01-24T10:39:11.472Z,2.46
2019-01-24T10:41:44.232Z,2.49
2019-01-24T10:44:15.215Z,2.47
2019-01-24T10:46:46.692Z,2.49
2019-01-24T10:49:17.665Z,2.47
2019-01-24T10:51:48.747Z,2.51
2019-01-24T10:54:19.807Z,2.51
2019-01-24T10:56:51.025Z,2.52
2019-01-24T10:59:22.081Z,2.45
2019-01-24T11:01:53.068Z,2.53
2019-01-24T11:04:24.689Z,2.41
2019-01-24T11:06:55.806Z,2.29
2019-01-24T11:09:26.882Z,2.43
2019-01-24T11:11:59.089Z,2.47
2019-01-24T11:14:32.318Z,2.48
2019-01-24T11:17:04.221Z,2.48
2019-01-24T11:19:35.281Z,2.56
2019-01-24T11:22:06.891Z,2.65
2019-01-24T11:24:38.125Z,2.53
2019-01-24T11:27:09.578Z,2.44
2019-01-24T11:29:40.631Z,2.48
2019-01-24T11:32:12.989Z,2.46
2019-01-24T11:34:44.047Z,2.57
2019-01-24T11:37:15.151Z,2.50
2019-01-24T11:39:47.570Z,2.49
2019-01-24T11:42:29.485Z,2.54
2019-01-24T11:45:02.319Z,2.60
2019-01-24T11:47:33.709Z,2.65
2019-01-24T11:50:05.816Z,2.55
2019-01-24T11:52:36.900Z,2.57
2019-01-24T11:55:10.253Z,2.65
2019-01-24T11:57:41.329Z,2.68
2019-01-24T12:00:31.999Z,2.60
2019-01-24T12:03:03.163Z,2.55
2019-01-24T12:05:34.549Z,2.57
2019-01-24T12:08:06.778Z,2.46
2019-01-24T12:10:38.438Z,2.49
2019-01-24T12:13:40.835Z,2.46
2019-01-24T12:16:11.051Z,2.63
2019-01-24T12:18:42.093Z,2.62
2019-01-24T12:21:13.322Z,2.62
2019-01-24T12:23:44.654Z,2.62
2019-01-24T12:26:15.664Z,2.54
2019-01-24T12:28:47.711Z,2.59
2019-01-24T12:31:19.269Z,2.43
2019-01-24T12:33:50.263Z,2.38
2019-01-24T12:36:22.260Z,2.37
2019-01-24T12:38:54.229Z,2.36
2019-01-24T12:41:25.627Z,2.44
2019-01-24T12:43:57.021Z,2.51
2019-01-24T12:46:28.445Z,2.42
2019-01-24T12:51:55.954Z,2.36
2019-01-24T12:54:26.956Z,2.32
2019-01-24T12:56:57.936Z,2.41
2019-01-24T12:59:29.256Z,2.45
2019-01-24T13:02:00.318Z,2.34
2019-01-24T13:04:31.742Z,2.46
2019-01-24T13:07:03.316Z,2.34
2019-01-24T13:09:34.478Z,2.49
2019-01-24T13:12:05.896Z,2.56
2019-01-24T13:14:37.227Z,2.52
2019-01-24T13:17:08.357Z,2.39
2019-01-24T13:19:39.374Z,2.35
2019-01-24T13:22:10.539Z,2.33
2019-01-24T13:24:41.632Z,2.30
2019-01-24T13:27:12.651Z,2.40
2019-01-24T13:29:43.761Z,2.33
2019-01-24T13:32:14.928Z,2.44
2019-01-24T13:34:45.921Z,2.37
2019-01-24T13:37:17.136Z,2.34
2019-01-24T13:39:49.352Z,2.45
2019-01-24T13:42:20.994Z,2.49
2019-01-24T13:44:52.469Z,2.53
2019-01-24T13:47:25.872Z,2.42
2019-01-24T13:49:56.857Z,2.57
2019-01-24T13:52:27.822Z,2.55
2019-01-24T13:54:58.807Z,2.54
2019-01-24T13:57:29.779Z,2.41
2019-01-24T14:00:01.098Z,2.41
2019-01-24T14:02:32.237Z,2.36
2019-01-24T14:05:03.613Z,2.41
2019-01-24T14:07:35.262Z,2.48
2019-01-24T14:10:08.889Z,2.42
2019-01-24T14:12:39.962Z,2.46
2019-01-24T14:15:13.575Z,2.47
2019-01-24T14:17:45.161Z,2.46
2019-01-24T14:20:18.297Z,2.42
2019-01-24T14:22:49.710Z,2.37
2019-01-24T14:25:21.193Z,2.36
2019-01-24T14:27:52.915Z,2.43
2019-01-24T14:30:25.213Z,2.42
2019-01-24T14:32:56.507Z,2.35
2019-01-24T14:35:27.614Z,2.26
2019-01-24T14:37:58.586Z,2.23
2019-01-24T14:40:29.916Z,2.27
2019-01-24T14:43:02.417Z,2.19
2019-01-24T14:45:33.557Z,2.13
2019-01-24T14:48:05.383Z,2.26
2019-01-24T14:50:38.493Z,2.34
2019-01-24T14:53:09.974Z,2.25
2019-01-24T14:55:41.203Z,2.23
2019-01-24T14:58:12.573Z,2.23
2019-01-24T15:01:13.702Z,2.22
2019-01-24T15:03:44.687Z,2.21
2019-01-24T15:06:15.840Z,2.21
2019-01-24T15:08:47.122Z,2.15
2019-01-24T15:11:18.416Z,2.09
2019-01-24T15:13:49.526Z,2.02
2019-01-24T15:16:20.510Z,2.09
2019-01-24T15:18:52.011Z,2.16
2019-01-24T15:21:23.038Z,2.35
2019-01-24T15:23:54.037Z,2.36
2019-01-24T15:26:25.116Z,2.27
2019-01-24T15:28:56.319Z,2.34
2019-01-24T15:31:27.353Z,2.35
2019-01-24T15:33:58.562Z,2.36
2019-01-24T15:36:30.088Z,2.42
2019-01-24T15:39:01.485Z,2.35
2019-01-24T15:41:34.810Z,2.38
2019-01-24T15:44:06.666Z,2.45
2019-01-24T15:46:37.723Z,2.45
2019-01-24T15:49:09.049Z,2.35
2019-01-24T15:51:40.691Z,2.42
2019-01-24T15:54:11.746Z,2.43
2019-01-24T15:56:43.058Z,2.39
2019-01-24T15:59:14.372Z,2.46
2019-01-24T16:01:45.549Z,2.38
2019-01-24T16:04:19.949Z,2.55
2019-01-24T16:06:50.045Z,2.57
2019-01-24T16:09:21.054Z,2.49
2019-01-24T16:11:52.605Z,2.52
2019-01-24T16:14:24.377Z,2.47
2019-01-24T16:16:55.522Z,2.50
2019-01-24T16:19:26.545Z,2.43
2019-01-24T16:21:57.656Z,2.46
2019-01-24T16:24:29.145Z,2.43
2019-01-24T16:27:00.212Z,2.41
2019-01-24T16:29:31.258Z,2.50
2019-01-24T16:32:02.465Z,2.40
2019-01-24T16:34:33.833Z,2.43
2019-01-24T16:37:04.975Z,2.59
2019-01-24T16:39:36.803Z,2.44
2019-01-24T16:42:08.949Z,2.19
2019-01-24T16:44:39.954Z,2.28
2019-01-24T16:47:11.150Z,2.33
2019-01-24T16:49:42.652Z,2.41
2019-01-24T16:52:13.984Z,2.46
2019-01-24T16:54:45.229Z,2.35
2019-01-24T16:57:16.295Z,2.35
2019-01-24T16:59:47.295Z,2.35
2019-01-24T17:02:18.946Z,2.35
2019-01-24T17:04:50.121Z,2.25
2019-01-24T17:07:21.310Z,2.16
2019-01-24T17:09:52.726Z,2.35
2019-01-24T17:12:24.231Z,2.34
2019-01-24T17:14:55.315Z,2.28
2019-01-24T17:17:26.462Z,2.34
2019-01-24T17:22:37.743Z,2.42
2019-01-24T17:25:10.915Z,2.40
2019-01-24T17:27:46.050Z,2.43
2019-01-24T17:30:19.229Z,2.39
2019-01-24T17:32:51.832Z,2.36
2019-01-24T17:35:23.180Z,2.45
2019-01-24T17:37:54.323Z,2.46
2019-01-24T17:40:29.230Z,2.15
2019-01-24T17:43:00.499Z,2.25
2019-01-24T17:45:32.124Z,2.37
2019-01-24T17:48:03.472Z,2.45
2019-01-24T17:50:35.034Z,2.49
2019-01-24T17:53:06.763Z,2.44
2019-01-24T17:55:44.686Z,2.30
2019-01-24T17:58:16.909Z,2.36
2019-01-24T18:00:53.115Z,2.39
2019-01-24T18:03:24.212Z,2.34
2019-01-24T18:05:55.293Z,2.25
2019-01-24T18:08:31.215Z,2.30
2019-01-24T18:10:59.622Z,2.28
2019-01-24T18:13:30.861Z,2.27
2019-01-24T18:16:02.115Z,2.22
2019-01-24T18:18:33.176Z,2.26
2019-01-24T18:21:04.374Z,2.23
2019-01-24T18:23:35.704Z,2.22
2019-01-24T18:26:07.561Z,2.24
2019-01-24T18:28:38.664Z,2.12
2019-01-24T18:31:09.824Z,2.23
2019-01-24T18:33:40.956Z,2.24
2019-01-24T18:36:12.524Z,2.23
2019-01-24T18:38:44.160Z,2.24
2019-01-24T18:41:15.321Z,2.20
2019-01-24T18:43:46.407Z,2.23
2019-01-24T18:46:17.451Z,2.05
2019-01-24T18:48:48.671Z,2.06
2019-01-24T18:51:19.768Z,2.09
2019-01-24T18:53:51.331Z,2.01
2019-01-24T18:56:22.422Z,1.98
2019-01-24T18:58:53.999Z,1.97
2019-01-24T19:01:25.210Z,2.00
2019-01-24T19:03:56.280Z,2.03
2019-01-24T19:06:27.434Z,1.94
2019-01-24T19:08:58.853Z,1.92
2019-01-24T19:11:29.941Z,2.08
2019-01-24T19:14:00.931Z,2.15
2019-01-24T19:16:32.227Z,2.09
2019-01-24T19:19:03.521Z,2.06
2019-01-24T19:21:34.531Z,2.12
2019-01-24T19:24:05.737Z,2.03
2019-01-24T19:26:37.087Z,2.11
2019-01-24T19:29:08.055Z,2.11
2019-01-24T19:31:39.070Z,2.13
2019-01-24T19:34:10.108Z,2.16
2019-01-24T19:36:41.174Z,2.12
2019-01-24T19:39:12.294Z,2.29
2019-01-24T19:41:43.352Z,2.29
2019-01-24T19:44:15.858Z,2.23
2019-01-24T19:46:48.668Z,2.23
2019-01-24T19:49:20.247Z,2.24
2019-01-24T19:51:52.197Z,2.12
2019-01-24T19:54:23.533Z,2.07
2019-01-24T19:56:54.651Z,2.13
2019-01-24T19:59:25.586Z,2.15
2019-01-24T20:01:56.671Z,2.20
2019-01-24T20:04:27.943Z,2.25
2019-01-24T20:06:59.349Z,2.18
2019-01-24T20:09:30.323Z,2.14
2019-01-24T20:12:01.680Z,2.14
2019-01-24T20:14:33.979Z,2.02
2019-01-24T20:17:05.305Z,2.07
2019-01-24T20:19:37.236Z,2.02
2019-01-24T20:22:08.513Z,2.10
2019-01-24T20:24:39.491Z,2.07
2019-01-24T20:27:10.583Z,1.92
2019-01-24T20:29:41.543Z,2.03
2019-01-24T20:32:12.842Z,1.98
2019-01-24T20:34:43.915Z,2.01
2019-01-24T20:37:15.536Z,2.06
2019-01-24T20:39:46.596Z,1.97
2019-01-24T20:42:18.273Z,1.99
2019-01-24T20:44:49.244Z,2.07
2019-01-24T20:47:24.548Z,2.07
2019-01-24T20:49:55.928Z,2.19
2019-01-24T20:52:27.202Z,2.06
2019-01-24T20:54:58.859Z,2.22
2019-01-24T20:57:30.177Z,2.33
2019-01-24T21:00:01.508Z,2.26
2019-01-24T21:02:32.544Z,2.29
2019-01-24T21:05:04.005Z,2.40
2019-01-24T21:07:35.091Z,2.18
2019-01-24T21:10:11.010Z,2.25
2019-01-24T21:12:42.507Z,2.20
2019-01-24T21:15:15.698Z,2.21
2019-01-24T21:20:26.123Z,2.27
2019-01-24T21:22:57.625Z,2.20
2019-01-24T21:25:29.257Z,2.04
2019-01-24T21:28:00.250Z,2.12
2019-01-24T21:30:36.339Z,2.14
2019-01-24T21:33:08.717Z,2.14
2019-01-24T21:35:39.998Z,2.42
2019-01-24T21:38:11.140Z,2.26
2019-01-24T21:40:42.799Z,2.11
2019-01-24T21:43:13.797Z,2.13
2019-01-24T21:45:45.200Z,2.11
2019-01-24T21:48:16.179Z,2.13
2019-01-24T21:50:47.282Z,2.14
2019-01-24T21:53:18.423Z,2.02
2019-01-24T21:55:49.629Z,2.08
2019-01-24T21:58:21.142Z,2.24
2019-01-24T22:00:53.419Z,2.12
2019-01-24T22:03:24.729Z,2.12
2019-01-24T22:05:55.697Z,1.92
2019-01-24T22:08:26.856Z,2.07
2019-01-24T22:10:57.874Z,2.05
2019-01-24T22:13:28.920Z,2.05
2019-01-24T22:16:00.026Z,2.05
2019-01-24T22:18:31.260Z,2.01
2019-01-24T22:21:02.231Z,2.01
2019-01-24T22:23:33.441Z,1.95
2019-01-24T22:26:04.492Z,1.99
2019-01-24T22:28:35.577Z,1.98
2019-01-24T22:31:08.280Z,1.88
2019-01-24T22:33:39.566Z,1.85
2019-01-24T22:36:10.874Z,1.76
2019-01-24T22:38:42.610Z,1.75
2019-01-24T22:41:13.572Z,1.70
2019-01-24T22:43:44.797Z,1.69
2019-01-24T22:46:15.995Z,1.70
2019-01-24T22:48:47.078Z,1.70
2019-01-24T22:51:18.406Z,1.72
2019-01-24T22:53:49.473Z,1.78
2019-01-24T22:56:20.607Z,1.94
2019-01-24T22:58:51.936Z,2.02
2019-01-24T23:02:05.738Z,1.99
2019-01-24T23:04:37.938Z,1.99
2019-01-24T23:07:09.045Z,1.88
2019-01-24T23:09:44.080Z,1.82
2019-01-24T23:12:12.067Z,1.94
2019-01-24T23:14:43.211Z,1.94
2019-01-24T23:17:14.548Z,1.96
2019-01-24T23:19:46.123Z,1.91
2019-01-24T23:22:17.097Z,1.91
2019-01-24T23:24:48.174Z,1.95
2019-01-24T23:27:19.501Z,2.03
2019-01-24T23:29:50.568Z,1.99
2019-01-24T23:32:21.543Z,2.00
2019-01-24T23:34:52.627Z,1.93
2019-01-24T23:37:23.647Z,1.92
2019-01-24T23:39:54.630Z,1.93
2019-01-24T23:42:25.939Z,2.03
2019-01-24T23:44:57.018Z,1.93
2019-01-24T23:47:28.419Z,2.13
2019-01-24T23:49:59.466Z,2.05
2019-01-24T23:52:31.239Z,2.13
2019-01-24T23:55:02.206Z,2.00
2019-01-24T23:57:33.605Z,1.92
